sensor_id;sensor_type;location;lat;lon;timestamp;P1;durP1;ratioP1;P2;durP2;ratioP2
52542;SDS011;38449;52.696;6.186;2023-07-20T00:01:33;5.13;;;3.63;;
52542;SDS011;38449;52.696;6.186;2023-07-20T00:04:03;4.25;;;3.42;;
52542;SDS011;38449;52.696;6.186;2023-07-20T00:06:30;4.55;;;3.70;;
52542;SDS011;38449;52.696;6.186;2023-07-20T00:08:56;4.20;;;3.65;;
52542;SDS011;38449;52.696;6.186;2023-07-20T00:11:25;4.57;;;3.90;;
52542;SDS011;38449;52.696;6.186;2023-07-20T00:13:52;4.70;;;3.83;;
52542;SDS011;38449;52.696;6.186;2023-07-20T00:16:19;3.65;;;3.22;;
52542;SDS011;38449;52.696;6.186;2023-07-20T00:18:45;4.07;;;3.22;;
52542;SDS011;38449;52.696;6.186;2023-07-20T00:21:11;4.05;;;3.35;;
52542;SDS011;38449;52.696;6.186;2023-07-20T00:23:37;3.85;;;3.38;;
52542;SDS011;38449;52.696;6.186;2023-07-20T00:26:03;3.05;;;2.75;;
52542;SDS011;38449;52.696;6.186;2023-07-20T00:28:30;4.82;;;3.10;;
52542;SDS011;38449;52.696;6.186;2023-07-20T00:30:56;4.38;;;2.97;;
52542;SDS011;38449;52.696;6.186;2023-07-20T00:33:24;3.55;;;2.90;;
52542;SDS011;38449;52.696;6.186;2023-07-20T00:35:51;3.45;;;3.15;;
52542;SDS011;38449;52.696;6.186;2023-07-20T00:38:18;3.63;;;3.17;;
52542;SDS011;38449;52.696;6.186;2023-07-20T00:40:44;3.63;;;2.97;;
52542;SDS011;38449;52.696;6.186;2023-07-20T00:43:11;4.72;;;3.22;;
52542;SDS011;38449;52.696;6.186;2023-07-20T00:45:37;3.28;;;2.78;;
52542;SDS011;38449;52.696;6.186;2023-07-20T00:48:04;4.03;;;2.83;;
52542;SDS011;38449;52.696;6.186;2023-07-20T00:50:35;3.60;;;2.55;;
52542;SDS011;38449;52.696;6.186;2023-07-20T00:53:05;3.92;;;2.80;;
52542;SDS011;38449;52.696;6.186;2023-07-20T00:55:32;3.50;;;2.88;;
52542;SDS011;38449;52.696;6.186;2023-07-20T00:58:00;3.90;;;2.85;;
52542;SDS011;38449;52.696;6.186;2023-07-20T01:00:26;4.00;;;2.92;;
52542;SDS011;38449;52.696;6.186;2023-07-20T01:02:53;3.97;;;2.83;;
52542;SDS011;38449;52.696;6.186;2023-07-20T01:05:20;5.93;;;3.15;;
52542;SDS011;38449;52.696;6.186;2023-07-20T01:07:57;3.15;;;2.85;;
52542;SDS011;38449;52.696;6.186;2023-07-20T01:10:42;5.88;;;3.30;;
52542;SDS011;38449;52.696;6.186;2023-07-20T01:13:12;3.20;;;2.85;;
52542;SDS011;38449;52.696;6.186;2023-07-20T01:15:40;4.65;;;3.30;;
52542;SDS011;38449;52.696;6.186;2023-07-20T01:18:07;4.05;;;2.92;;
52542;SDS011;38449;52.696;6.186;2023-07-20T01:20:33;3.95;;;3.00;;
52542;SDS011;38449;52.696;6.186;2023-07-20T01:31:46;3.88;;;3.10;;
52542;SDS011;38449;52.696;6.186;2023-07-20T01:34:25;4.85;;;3.00;;
52542;SDS011;38449;52.696;6.186;2023-07-20T01:36:52;3.40;;;2.75;;
52542;SDS011;38449;52.696;6.186;2023-07-20T01:39:23;4.65;;;3.55;;
52542;SDS011;38449;52.696;6.186;2023-07-20T01:41:50;3.75;;;3.35;;
52542;SDS011;38449;52.696;6.186;2023-07-20T01:44:16;3.75;;;3.35;;
52542;SDS011;38449;52.696;6.186;2023-07-20T01:46:43;4.35;;;3.40;;
52542;SDS011;38449;52.696;6.186;2023-07-20T01:49:10;3.90;;;3.40;;
52542;SDS011;38449;52.696;6.186;2023-07-20T01:51:36;3.92;;;3.53;;
52542;SDS011;38449;52.696;6.186;2023-07-20T01:54:05;5.38;;;3.88;;
52542;SDS011;38449;52.696;6.186;2023-07-20T01:56:32;4.93;;;3.55;;
52542;SDS011;38449;52.696;6.186;2023-07-20T01:59:00;5.68;;;3.72;;
52542;SDS011;38449;52.696;6.186;2023-07-20T02:01:26;4.72;;;3.97;;
52542;SDS011;38449;52.696;6.186;2023-07-20T02:03:56;5.40;;;3.88;;
52542;SDS011;38449;52.696;6.186;2023-07-20T02:06:30;5.55;;;4.20;;
52542;SDS011;38449;52.696;6.186;2023-07-20T02:08:57;4.57;;;4.10;;
52542;SDS011;38449;52.696;6.186;2023-07-20T02:11:23;5.05;;;4.55;;
52542;SDS011;38449;52.696;6.186;2023-07-20T02:13:49;4.90;;;4.32;;
52542;SDS011;38449;52.696;6.186;2023-07-20T02:16:16;4.75;;;4.20;;
52542;SDS011;38449;52.696;6.186;2023-07-20T02:18:42;5.30;;;4.38;;
52542;SDS011;38449;52.696;6.186;2023-07-20T02:21:09;4.90;;;4.40;;
52542;SDS011;38449;52.696;6.186;2023-07-20T02:23:35;5.03;;;4.32;;
52542;SDS011;38449;52.696;6.186;2023-07-20T02:26:03;5.07;;;4.55;;
52542;SDS011;38449;52.696;6.186;2023-07-20T02:28:29;5.20;;;4.57;;
52542;SDS011;38449;52.696;6.186;2023-07-20T02:30:55;6.07;;;4.82;;
52542;SDS011;38449;52.696;6.186;2023-07-20T02:33:22;4.88;;;4.38;;
52542;SDS011;38449;52.696;6.186;2023-07-20T02:35:55;6.13;;;4.60;;
52542;SDS011;38449;52.696;6.186;2023-07-20T02:38:22;5.32;;;4.82;;
52542;SDS011;38449;52.696;6.186;2023-07-20T02:40:49;6.20;;;4.80;;
52542;SDS011;38449;52.696;6.186;2023-07-20T02:43:16;5.35;;;4.63;;
52542;SDS011;38449;52.696;6.186;2023-07-20T02:45:43;6.40;;;4.80;;
52542;SDS011;38449;52.696;6.186;2023-07-20T02:48:11;5.88;;;5.28;;
52542;SDS011;38449;52.696;6.186;2023-07-20T02:53:38;5.82;;;4.78;;
52542;SDS011;38449;52.696;6.186;2023-07-20T02:56:05;5.47;;;4.47;;
52542;SDS011;38449;52.696;6.186;2023-07-20T02:58:33;5.50;;;4.97;;
52542;SDS011;38449;52.696;6.186;2023-07-20T03:01:02;6.25;;;4.72;;
52542;SDS011;38449;52.696;6.186;2023-07-20T03:03:29;5.63;;;4.93;;
52542;SDS011;38449;52.696;6.186;2023-07-20T03:05:56;6.57;;;4.25;;
52542;SDS011;38449;52.696;6.186;2023-07-20T03:08:23;6.60;;;5.03;;
52542;SDS011;38449;52.696;6.186;2023-07-20T03:10:50;7.82;;;4.82;;
52542;SDS011;38449;52.696;6.186;2023-07-20T03:13:16;5.30;;;4.80;;
52542;SDS011;38449;52.696;6.186;2023-07-20T03:15:43;6.75;;;5.47;;
52542;SDS011;38449;52.696;6.186;2023-07-20T03:18:11;5.28;;;4.70;;
52542;SDS011;38449;52.696;6.186;2023-07-20T03:20:41;6.07;;;4.68;;
52542;SDS011;38449;52.696;6.186;2023-07-20T03:23:07;5.25;;;4.70;;
52542;SDS011;38449;52.696;6.186;2023-07-20T03:25:33;5.07;;;4.30;;
52542;SDS011;38449;52.696;6.186;2023-07-20T03:27:59;5.47;;;4.93;;
52542;SDS011;38449;52.696;6.186;2023-07-20T03:30:26;5.53;;;4.85;;
52542;SDS011;38449;52.696;6.186;2023-07-20T03:32:53;5.45;;;4.78;;
52542;SDS011;38449;52.696;6.186;2023-07-20T03:35:19;5.63;;;5.03;;
52542;SDS011;38449;52.696;6.186;2023-07-20T03:37:46;5.68;;;4.97;;
52542;SDS011;38449;52.696;6.186;2023-07-20T03:40:13;5.20;;;4.45;;
52542;SDS011;38449;52.696;6.186;2023-07-20T03:42:40;6.63;;;4.78;;
52542;SDS011;38449;52.696;6.186;2023-07-20T03:45:07;5.30;;;4.57;;
52542;SDS011;38449;52.696;6.186;2023-07-20T03:47:33;7.90;;;5.00;;
52542;SDS011;38449;52.696;6.186;2023-07-20T03:50:01;5.13;;;4.47;;
52542;SDS011;38449;52.696;6.186;2023-07-20T03:52:27;7.80;;;5.20;;
52542;SDS011;38449;52.696;6.186;2023-07-20T03:54:53;6.10;;;4.82;;
52542;SDS011;38449;52.696;6.186;2023-07-20T03:57:19;5.22;;;4.72;;
52542;SDS011;38449;52.696;6.186;2023-07-20T03:59:46;6.18;;;4.85;;
52542;SDS011;38449;52.696;6.186;2023-07-20T04:02:12;4.38;;;3.95;;
52542;SDS011;38449;52.696;6.186;2023-07-20T04:04:40;5.15;;;4.03;;
52542;SDS011;38449;52.696;6.186;2023-07-20T04:07:07;5.03;;;4.32;;
52542;SDS011;38449;52.696;6.186;2023-07-20T04:09:33;4.72;;;4.18;;
52542;SDS011;38449;52.696;6.186;2023-07-20T04:11:59;5.60;;;4.57;;
52542;SDS011;38449;52.696;6.186;2023-07-20T04:14:26;5.55;;;4.22;;
52542;SDS011;38449;52.696;6.186;2023-07-20T04:16:53;5.78;;;4.22;;
52542;SDS011;38449;52.696;6.186;2023-07-20T04:19:19;5.53;;;4.13;;
52542;SDS011;38449;52.696;6.186;2023-07-20T04:21:45;6.85;;;4.15;;
52542;SDS011;38449;52.696;6.186;2023-07-20T04:24:11;5.28;;;4.30;;
52542;SDS011;38449;52.696;6.186;2023-07-20T04:26:38;4.22;;;3.83;;
52542;SDS011;38449;52.696;6.186;2023-07-20T04:29:04;5.25;;;3.55;;
52542;SDS011;38449;52.696;6.186;2023-07-20T04:31:31;6.15;;;4.22;;
52542;SDS011;38449;52.696;6.186;2023-07-20T04:33:59;6.03;;;4.10;;
52542;SDS011;38449;52.696;6.186;2023-07-20T04:36:32;6.63;;;3.85;;
52542;SDS011;38449;52.696;6.186;2023-07-20T04:38:59;6.18;;;4.40;;
52542;SDS011;38449;52.696;6.186;2023-07-20T04:41:25;5.00;;;4.07;;
52542;SDS011;38449;52.696;6.186;2023-07-20T04:43:52;4.40;;;3.78;;
52542;SDS011;38449;52.696;6.186;2023-07-20T04:46:18;4.28;;;3.88;;
52542;SDS011;38449;52.696;6.186;2023-07-20T04:48:44;5.40;;;3.88;;
52542;SDS011;38449;52.696;6.186;2023-07-20T04:51:12;4.88;;;3.63;;
52542;SDS011;38449;52.696;6.186;2023-07-20T04:53:38;5.45;;;4.13;;
52542;SDS011;38449;52.696;6.186;2023-07-20T04:56:04;4.82;;;3.90;;
52542;SDS011;38449;52.696;6.186;2023-07-20T04:58:30;5.35;;;4.55;;
52542;SDS011;38449;52.696;6.186;2023-07-20T05:00:57;6.95;;;4.28;;
52542;SDS011;38449;52.696;6.186;2023-07-20T05:03:23;4.28;;;3.63;;
52542;SDS011;38449;52.696;6.186;2023-07-20T05:05:50;4.60;;;3.80;;
52542;SDS011;38449;52.696;6.186;2023-07-20T05:08:16;4.10;;;3.55;;
52542;SDS011;38449;52.696;6.186;2023-07-20T05:10:43;4.10;;;3.17;;
52542;SDS011;38449;52.696;6.186;2023-07-20T05:13:09;4.05;;;3.20;;
52542;SDS011;38449;52.696;6.186;2023-07-20T05:15:35;3.67;;;2.58;;
52542;SDS011;38449;52.696;6.186;2023-07-20T05:18:01;3.58;;;2.80;;
52542;SDS011;38449;52.696;6.186;2023-07-20T05:20:28;3.55;;;2.88;;
52542;SDS011;38449;52.696;6.186;2023-07-20T05:23:09;4.82;;;3.00;;
52542;SDS011;38449;52.696;6.186;2023-07-20T05:25:36;4.75;;;2.95;;
52542;SDS011;38449;52.696;6.186;2023-07-20T05:28:02;4.10;;;2.63;;
52542;SDS011;38449;52.696;6.186;2023-07-20T05:30:28;3.45;;;2.75;;
52542;SDS011;38449;52.696;6.186;2023-07-20T05:32:54;3.47;;;2.60;;
52542;SDS011;38449;52.696;6.186;2023-07-20T05:35:21;3.20;;;2.55;;
52542;SDS011;38449;52.696;6.186;2023-07-20T05:37:48;6.13;;;2.92;;
52542;SDS011;38449;52.696;6.186;2023-07-20T05:40:14;3.88;;;2.70;;
52542;SDS011;38449;52.696;6.186;2023-07-20T05:42:45;4.25;;;2.65;;
52542;SDS011;38449;52.696;6.186;2023-07-20T05:45:17;3.13;;;2.67;;
52542;SDS011;38449;52.696;6.186;2023-07-20T05:47:44;4.25;;;2.50;;
52542;SDS011;38449;52.696;6.186;2023-07-20T05:50:11;3.15;;;2.50;;
52542;SDS011;38449;52.696;6.186;2023-07-20T05:52:37;3.55;;;2.47;;
52542;SDS011;38449;52.696;6.186;2023-07-20T05:55:06;3.20;;;2.22;;
52542;SDS011;38449;52.696;6.186;2023-07-20T05:57:33;3.22;;;2.00;;
52542;SDS011;38449;52.696;6.186;2023-07-20T05:59:59;5.05;;;2.05;;
52542;SDS011;38449;52.696;6.186;2023-07-20T06:02:25;3.78;;;1.90;;
52542;SDS011;38449;52.696;6.186;2023-07-20T06:04:58;2.92;;;1.98;;
52542;SDS011;38449;52.696;6.186;2023-07-20T06:07:27;3.20;;;2.00;;
52542;SDS011;38449;52.696;6.186;2023-07-20T06:09:53;3.13;;;1.80;;
52542;SDS011;38449;52.696;6.186;2023-07-20T06:12:19;3.45;;;1.73;;
52542;SDS011;38449;52.696;6.186;2023-07-20T06:14:45;3.60;;;1.75;;
52542;SDS011;38449;52.696;6.186;2023-07-20T06:17:12;3.38;;;1.63;;
52542;SDS011;38449;52.696;6.186;2023-07-20T06:19:40;3.13;;;1.50;;
52542;SDS011;38449;52.696;6.186;2023-07-20T06:22:09;2.80;;;1.33;;
52542;SDS011;38449;52.696;6.186;2023-07-20T06:24:35;3.58;;;1.60;;
52542;SDS011;38449;52.696;6.186;2023-07-20T06:27:02;3.00;;;1.60;;
52542;SDS011;38449;52.696;6.186;2023-07-20T06:29:28;1.98;;;1.25;;
52542;SDS011;38449;52.696;6.186;2023-07-20T06:31:56;2.10;;;1.80;;
52542;SDS011;38449;52.696;6.186;2023-07-20T06:34:22;2.65;;;1.30;;
52542;SDS011;38449;52.696;6.186;2023-07-20T06:36:49;1.92;;;1.27;;
52542;SDS011;38449;52.696;6.186;2023-07-20T06:39:15;2.15;;;1.30;;
52542;SDS011;38449;52.696;6.186;2023-07-20T06:41:41;3.78;;;1.00;;
52542;SDS011;38449;52.696;6.186;2023-07-20T06:44:07;2.92;;;1.30;;
52542;SDS011;38449;52.696;6.186;2023-07-20T06:46:34;3.92;;;1.48;;
52542;SDS011;38449;52.696;6.186;2023-07-20T06:49:00;2.35;;;1.40;;
52542;SDS011;38449;52.696;6.186;2023-07-20T06:51:26;2.92;;;1.60;;
52542;SDS011;38449;52.696;6.186;2023-07-20T06:53:54;2.90;;;1.70;;
52542;SDS011;38449;52.696;6.186;2023-07-20T06:56:20;2.97;;;1.42;;
52542;SDS011;38449;52.696;6.186;2023-07-20T06:58:46;3.55;;;1.40;;
52542;SDS011;38449;52.696;6.186;2023-07-20T07:01:13;2.88;;;1.45;;
52542;SDS011;38449;52.696;6.186;2023-07-20T07:03:40;3.65;;;1.58;;
52542;SDS011;38449;52.696;6.186;2023-07-20T07:06:06;2.88;;;1.20;;
52542;SDS011;38449;52.696;6.186;2023-07-20T07:08:33;1.85;;;1.20;;
52542;SDS011;38449;52.696;6.186;2023-07-20T07:10:59;2.63;;;1.30;;
52542;SDS011;38449;52.696;6.186;2023-07-20T07:13:25;2.92;;;1.42;;
52542;SDS011;38449;52.696;6.186;2023-07-20T07:15:52;3.15;;;1.40;;
52542;SDS011;38449;52.696;6.186;2023-07-20T07:18:18;2.47;;;1.35;;
52542;SDS011;38449;52.696;6.186;2023-07-20T07:20:52;1.90;;;1.10;;
52542;SDS011;38449;52.696;6.186;2023-07-20T07:23:19;1.60;;;1.20;;
52542;SDS011;38449;52.696;6.186;2023-07-20T07:25:45;2.65;;;1.20;;
52542;SDS011;38449;52.696;6.186;2023-07-20T07:28:12;3.72;;;1.27;;
52542;SDS011;38449;52.696;6.186;2023-07-20T07:30:38;3.50;;;1.70;;
52542;SDS011;38449;52.696;6.186;2023-07-20T07:33:05;3.55;;;1.63;;
52542;SDS011;38449;52.696;6.186;2023-07-20T07:35:31;1.70;;;1.23;;
52542;SDS011;38449;52.696;6.186;2023-07-20T07:37:57;4.40;;;1.23;;
52542;SDS011;38449;52.696;6.186;2023-07-20T07:40:23;4.50;;;1.35;;
52542;SDS011;38449;52.696;6.186;2023-07-20T07:42:50;1.77;;;1.20;;
52542;SDS011;38449;52.696;6.186;2023-07-20T07:45:16;3.78;;;1.48;;
52542;SDS011;38449;52.696;6.186;2023-07-20T07:47:42;2.58;;;1.38;;
52542;SDS011;38449;52.696;6.186;2023-07-20T07:50:09;2.40;;;1.35;;
52542;SDS011;38449;52.696;6.186;2023-07-20T07:52:35;4.07;;;1.40;;
52542;SDS011;38449;52.696;6.186;2023-07-20T07:55:02;2.88;;;1.20;;
52542;SDS011;38449;52.696;6.186;2023-07-20T07:57:29;2.25;;;1.30;;
52542;SDS011;38449;52.696;6.186;2023-07-20T07:59:56;2.75;;;1.42;;
52542;SDS011;38449;52.696;6.186;2023-07-20T08:02:22;6.25;;;1.60;;
52542;SDS011;38449;52.696;6.186;2023-07-20T08:04:49;5.47;;;1.35;;
52542;SDS011;38449;52.696;6.186;2023-07-20T08:07:17;3.33;;;1.60;;
52542;SDS011;38449;52.696;6.186;2023-07-20T08:09:44;1.70;;;1.23;;
52542;SDS011;38449;52.696;6.186;2023-07-20T08:12:10;3.60;;;1.50;;
52542;SDS011;38449;52.696;6.186;2023-07-20T08:14:36;3.20;;;1.80;;
52542;SDS011;38449;52.696;6.186;2023-07-20T08:17:03;2.40;;;1.45;;
52542;SDS011;38449;52.696;6.186;2023-07-20T08:19:33;3.45;;;1.63;;
52542;SDS011;38449;52.696;6.186;2023-07-20T08:22:00;2.72;;;1.50;;
52542;SDS011;38449;52.696;6.186;2023-07-20T08:24:26;2.85;;;1.58;;
52542;SDS011;38449;52.696;6.186;2023-07-20T08:26:53;4.72;;;1.88;;
52542;SDS011;38449;52.696;6.186;2023-07-20T08:29:19;2.97;;;2.03;;
52542;SDS011;38449;52.696;6.186;2023-07-20T08:31:45;2.55;;;1.42;;
52542;SDS011;38449;52.696;6.186;2023-07-20T08:34:12;2.30;;;1.20;;
52542;SDS011;38449;52.696;6.186;2023-07-20T08:36:38;3.45;;;1.58;;
52542;SDS011;38449;52.696;6.186;2023-07-20T08:39:04;2.30;;;1.52;;
52542;SDS011;38449;52.696;6.186;2023-07-20T08:41:34;4.47;;;1.48;;
52542;SDS011;38449;52.696;6.186;2023-07-20T08:44:01;2.38;;;1.40;;
52542;SDS011;38449;52.696;6.186;2023-07-20T08:46:27;1.92;;;1.23;;
52542;SDS011;38449;52.696;6.186;2023-07-20T08:48:54;2.38;;;1.25;;
52542;SDS011;38449;52.696;6.186;2023-07-20T08:51:22;2.53;;;1.30;;
52542;SDS011;38449;52.696;6.186;2023-07-20T08:53:50;2.78;;;1.17;;
52542;SDS011;38449;52.696;6.186;2023-07-20T08:56:23;2.72;;;1.27;;
52542;SDS011;38449;52.696;6.186;2023-07-20T08:58:53;2.28;;;1.30;;
52542;SDS011;38449;52.696;6.186;2023-07-20T09:01:19;2.75;;;1.30;;
52542;SDS011;38449;52.696;6.186;2023-07-20T09:03:47;3.17;;;1.70;;
52542;SDS011;38449;52.696;6.186;2023-07-20T09:06:14;3.30;;;1.63;;
52542;SDS011;38449;52.696;6.186;2023-07-20T09:08:41;2.08;;;1.30;;
52542;SDS011;38449;52.696;6.186;2023-07-20T09:11:11;4.70;;;1.70;;
52542;SDS011;38449;52.696;6.186;2023-07-20T09:13:39;2.08;;;1.48;;
52542;SDS011;38449;52.696;6.186;2023-07-20T09:16:05;5.28;;;1.48;;
52542;SDS011;38449;52.696;6.186;2023-07-20T09:18:32;3.28;;;1.67;;
52542;SDS011;38449;52.696;6.186;2023-07-20T09:21:03;2.08;;;1.02;;
52542;SDS011;38449;52.696;6.186;2023-07-20T09:23:34;2.17;;;1.10;;
52542;SDS011;38449;52.696;6.186;2023-07-20T09:26:12;3.88;;;1.42;;
52542;SDS011;38449;52.696;6.186;2023-07-20T09:28:42;3.35;;;1.30;;
52542;SDS011;38449;52.696;6.186;2023-07-20T09:31:19;2.55;;;1.40;;
52542;SDS011;38449;52.696;6.186;2023-07-20T09:33:46;1.60;;;1.10;;
52542;SDS011;38449;52.696;6.186;2023-07-20T09:36:13;3.65;;;1.50;;
52542;SDS011;38449;52.696;6.186;2023-07-20T09:38:43;2.63;;;1.20;;
52542;SDS011;38449;52.696;6.186;2023-07-20T09:41:13;2.20;;;1.38;;
52542;SDS011;38449;52.696;6.186;2023-07-20T09:43:44;2.63;;;1.20;;
52542;SDS011;38449;52.696;6.186;2023-07-20T09:46:11;3.60;;;1.20;;
52542;SDS011;38449;52.696;6.186;2023-07-20T09:48:37;2.75;;;1.45;;
52542;SDS011;38449;52.696;6.186;2023-07-20T09:51:03;1.60;;;1.20;;
52542;SDS011;38449;52.696;6.186;2023-07-20T09:53:32;5.78;;;1.50;;
52542;SDS011;38449;52.696;6.186;2023-07-20T09:55:59;3.42;;;1.20;;
52542;SDS011;38449;52.696;6.186;2023-07-20T09:58:25;1.67;;;1.10;;
52542;SDS011;38449;52.696;6.186;2023-07-20T10:00:52;1.35;;;1.15;;
52542;SDS011;38449;52.696;6.186;2023-07-20T10:03:23;1.83;;;1.23;;
52542;SDS011;38449;52.696;6.186;2023-07-20T10:05:56;2.08;;;1.20;;
52542;SDS011;38449;52.696;6.186;2023-07-20T10:08:25;1.88;;;1.23;;
52542;SDS011;38449;52.696;6.186;2023-07-20T10:10:54;3.40;;;1.30;;
52542;SDS011;38449;52.696;6.186;2023-07-20T10:13:26;2.10;;;1.40;;
52542;SDS011;38449;52.696;6.186;2023-07-20T10:15:54;2.70;;;1.33;;
52542;SDS011;38449;52.696;6.186;2023-07-20T10:18:38;4.05;;;1.50;;
52542;SDS011;38449;52.696;6.186;2023-07-20T10:21:10;2.72;;;1.35;;
52542;SDS011;38449;52.696;6.186;2023-07-20T10:23:37;2.25;;;1.30;;
52542;SDS011;38449;52.696;6.186;2023-07-20T10:26:05;3.53;;;1.63;;
52542;SDS011;38449;52.696;6.186;2023-07-20T10:28:31;4.72;;;2.03;;
52542;SDS011;38449;52.696;6.186;2023-07-20T10:30:58;3.05;;;1.52;;
52542;SDS011;38449;52.696;6.186;2023-07-20T10:33:24;3.58;;;1.60;;
52542;SDS011;38449;52.696;6.186;2023-07-20T10:36:02;3.17;;;1.42;;
52542;SDS011;38449;52.696;6.186;2023-07-20T10:41:16;3.97;;;1.60;;
52542;SDS011;38449;52.696;6.186;2023-07-20T10:43:48;4.32;;;1.73;;
52542;SDS011;38449;52.696;6.186;2023-07-20T10:46:15;3.78;;;1.63;;
52542;SDS011;38449;52.696;6.186;2023-07-20T10:49:08;3.63;;;1.65;;
52542;SDS011;38449;52.696;6.186;2023-07-20T10:51:47;3.20;;;1.48;;
52542;SDS011;38449;52.696;6.186;2023-07-20T10:56:47;2.78;;;1.88;;
52542;SDS011;38449;52.696;6.186;2023-07-20T10:59:56;4.18;;;1.80;;
52542;SDS011;38449;52.696;6.186;2023-07-20T11:02:06;3.78;;;1.77;;
52542;SDS011;38449;52.696;6.186;2023-07-20T11:04:37;2.97;;;2.03;;
52542;SDS011;38449;52.696;6.186;2023-07-20T11:07:08;3.65;;;2.00;;
52542;SDS011;38449;52.696;6.186;2023-07-20T11:09:37;3.80;;;1.95;;
52542;SDS011;38449;52.696;6.186;2023-07-20T11:14:41;4.72;;;1.73;;
52542;SDS011;38449;52.696;6.186;2023-07-20T11:17:14;2.42;;;1.50;;
52542;SDS011;38449;52.696;6.186;2023-07-20T11:19:41;3.83;;;1.65;;
52542;SDS011;38449;52.696;6.186;2023-07-20T11:22:07;3.42;;;1.70;;
52542;SDS011;38449;52.696;6.186;2023-07-20T11:24:37;3.55;;;1.70;;
52542;SDS011;38449;52.696;6.186;2023-07-20T11:27:05;4.57;;;1.70;;
52542;SDS011;38449;52.696;6.186;2023-07-20T11:29:31;2.25;;;1.58;;
52542;SDS011;38449;52.696;6.186;2023-07-20T11:31:58;3.30;;;1.70;;
52542;SDS011;38449;52.696;6.186;2023-07-20T11:34:29;3.42;;;1.45;;
52542;SDS011;38449;52.696;6.186;2023-07-20T11:36:56;4.90;;;1.63;;
52542;SDS011;38449;52.696;6.186;2023-07-20T11:39:22;3.70;;;1.55;;
52542;SDS011;38449;52.696;6.186;2023-07-20T11:41:57;3.65;;;1.52;;
52542;SDS011;38449;52.696;6.186;2023-07-20T11:44:24;1.95;;;1.42;;
52542;SDS011;38449;52.696;6.186;2023-07-20T11:47:03;3.55;;;1.50;;
52542;SDS011;38449;52.696;6.186;2023-07-20T11:49:43;3.25;;;1.60;;
52542;SDS011;38449;52.696;6.186;2023-07-20T11:52:10;3.50;;;1.42;;
52542;SDS011;38449;52.696;6.186;2023-07-20T11:54:39;1.98;;;1.30;;
52542;SDS011;38449;52.696;6.186;2023-07-20T11:57:06;2.35;;;1.60;;
52542;SDS011;38449;52.696;6.186;2023-07-20T11:59:33;3.22;;;1.42;;
52542;SDS011;38449;52.696;6.186;2023-07-20T12:02:02;2.30;;;1.50;;
52542;SDS011;38449;52.696;6.186;2023-07-20T12:04:32;3.17;;;1.38;;
52542;SDS011;38449;52.696;6.186;2023-07-20T12:06:59;2.33;;;1.50;;
52542;SDS011;38449;52.696;6.186;2023-07-20T12:09:26;2.88;;;1.45;;
52542;SDS011;38449;52.696;6.186;2023-07-20T12:11:53;3.63;;;1.30;;
52542;SDS011;38449;52.696;6.186;2023-07-20T12:14:20;2.17;;;1.27;;
52542;SDS011;38449;52.696;6.186;2023-07-20T12:16:51;2.92;;;1.27;;
52542;SDS011;38449;52.696;6.186;2023-07-20T12:19:19;2.03;;;1.10;;
52542;SDS011;38449;52.696;6.186;2023-07-20T12:21:45;3.55;;;1.35;;
52542;SDS011;38449;52.696;6.186;2023-07-20T12:24:12;2.55;;;1.30;;
52542;SDS011;38449;52.696;6.186;2023-07-20T12:26:38;1.98;;;1.23;;
52542;SDS011;38449;52.696;6.186;2023-07-20T12:29:04;2.95;;;1.25;;
52542;SDS011;38449;52.696;6.186;2023-07-20T12:31:34;2.38;;;1.40;;
52542;SDS011;38449;52.696;6.186;2023-07-20T12:34:02;2.75;;;1.50;;
52542;SDS011;38449;52.696;6.186;2023-07-20T12:36:29;3.05;;;1.10;;
52542;SDS011;38449;52.696;6.186;2023-07-20T12:38:56;2.20;;;1.52;;
52542;SDS011;38449;52.696;6.186;2023-07-20T12:41:24;4.25;;;1.50;;
52542;SDS011;38449;52.696;6.186;2023-07-20T12:43:50;2.97;;;1.23;;
52542;SDS011;38449;52.696;6.186;2023-07-20T12:46:16;2.65;;;1.33;;
52542;SDS011;38449;52.696;6.186;2023-07-20T12:48:42;2.00;;;1.23;;
52542;SDS011;38449;52.696;6.186;2023-07-20T12:51:09;2.50;;;1.20;;
52542;SDS011;38449;52.696;6.186;2023-07-20T12:53:35;1.42;;;1.20;;
52542;SDS011;38449;52.696;6.186;2023-07-20T12:56:02;2.15;;;1.13;;
52542;SDS011;38449;52.696;6.186;2023-07-20T12:58:28;3.22;;;1.10;;
52542;SDS011;38449;52.696;6.186;2023-07-20T13:00:54;1.80;;;1.20;;
52542;SDS011;38449;52.696;6.186;2023-07-20T13:03:21;2.97;;;1.10;;
52542;SDS011;38449;52.696;6.186;2023-07-20T13:05:47;2.92;;;1.20;;
52542;SDS011;38449;52.696;6.186;2023-07-20T13:08:14;3.33;;;1.27;;
52542;SDS011;38449;52.696;6.186;2023-07-20T13:10:41;5.13;;;1.73;;
52542;SDS011;38449;52.696;6.186;2023-07-20T13:13:07;2.10;;;1.40;;
52542;SDS011;38449;52.696;6.186;2023-07-20T13:15:40;3.70;;;1.40;;
52542;SDS011;38449;52.696;6.186;2023-07-20T13:18:09;2.70;;;1.23;;
52542;SDS011;38449;52.696;6.186;2023-07-20T13:20:36;2.95;;;1.20;;
52542;SDS011;38449;52.696;6.186;2023-07-20T13:23:04;3.90;;;1.40;;
52542;SDS011;38449;52.696;6.186;2023-07-20T13:25:30;1.88;;;1.50;;
52542;SDS011;38449;52.696;6.186;2023-07-20T13:27:56;2.05;;;1.23;;
52542;SDS011;38449;52.696;6.186;2023-07-20T13:30:28;1.90;;;1.30;;
52542;SDS011;38449;52.696;6.186;2023-07-20T13:35:20;3.95;;;1.50;;
52542;SDS011;38449;52.696;6.186;2023-07-20T13:37:47;2.83;;;1.20;;
52542;SDS011;38449;52.696;6.186;2023-07-20T13:40:14;2.15;;;1.30;;
52542;SDS011;38449;52.696;6.186;2023-07-20T13:42:42;2.90;;;1.52;;
52542;SDS011;38449;52.696;6.186;2023-07-20T13:45:10;2.40;;;1.20;;
52542;SDS011;38449;52.696;6.186;2023-07-20T13:47:36;2.35;;;1.30;;
52542;SDS011;38449;52.696;6.186;2023-07-20T13:50:03;1.83;;;1.25;;
52542;SDS011;38449;52.696;6.186;2023-07-20T13:52:30;2.10;;;1.13;;
52542;SDS011;38449;52.696;6.186;2023-07-20T13:54:56;1.40;;;1.17;;
52542;SDS011;38449;52.696;6.186;2023-07-20T13:57:23;2.03;;;1.23;;
52542;SDS011;38449;52.696;6.186;2023-07-20T13:59:49;3.15;;;1.02;;
52542;SDS011;38449;52.696;6.186;2023-07-20T14:02:15;1.88;;;1.30;;
52542;SDS011;38449;52.696;6.186;2023-07-20T14:04:41;1.63;;;1.10;;
52542;SDS011;38449;52.696;6.186;2023-07-20T14:07:08;1.60;;;1.13;;
52542;SDS011;38449;52.696;6.186;2023-07-20T14:09:34;1.70;;;1.00;;
52542;SDS011;38449;52.696;6.186;2023-07-20T14:12:00;2.65;;;1.30;;
52542;SDS011;38449;52.696;6.186;2023-07-20T14:14:26;2.72;;;1.20;;
52542;SDS011;38449;52.696;6.186;2023-07-20T14:16:53;1.48;;;1.08;;
52542;SDS011;38449;52.696;6.186;2023-07-20T14:19:19;1.88;;;1.10;;
52542;SDS011;38449;52.696;6.186;2023-07-20T14:21:45;1.98;;;1.00;;
52542;SDS011;38449;52.696;6.186;2023-07-20T14:24:12;1.58;;;1.33;;
52542;SDS011;38449;52.696;6.186;2023-07-20T14:26:38;2.92;;;1.20;;
52542;SDS011;38449;52.696;6.186;2023-07-20T14:29:05;1.98;;;0.90;;
52542;SDS011;38449;52.696;6.186;2023-07-20T14:31:31;1.95;;;1.23;;
52542;SDS011;38449;52.696;6.186;2023-07-20T14:33:57;1.25;;;1.10;;
52542;SDS011;38449;52.696;6.186;2023-07-20T14:36:23;2.22;;;1.10;;
52542;SDS011;38449;52.696;6.186;2023-07-20T14:38:52;2.15;;;1.13;;
52542;SDS011;38449;52.696;6.186;2023-07-20T14:41:18;3.42;;;1.23;;
52542;SDS011;38449;52.696;6.186;2023-07-20T14:43:44;2.63;;;1.17;;
52542;SDS011;38449;52.696;6.186;2023-07-20T14:46:11;1.70;;;1.00;;
52542;SDS011;38449;52.696;6.186;2023-07-20T14:48:37;2.40;;;1.15;;
52542;SDS011;38449;52.696;6.186;2023-07-20T14:51:03;2.60;;;1.27;;
52542;SDS011;38449;52.696;6.186;2023-07-20T14:53:30;3.17;;;1.52;;
52542;SDS011;38449;52.696;6.186;2023-07-20T14:56:00;1.50;;;1.10;;
52542;SDS011;38449;52.696;6.186;2023-07-20T14:58:27;1.98;;;1.10;;
52542;SDS011;38449;52.696;6.186;2023-07-20T15:00:53;1.98;;;1.40;;
52542;SDS011;38449;52.696;6.186;2023-07-20T15:03:20;2.17;;;1.13;;
52542;SDS011;38449;52.696;6.186;2023-07-20T15:05:46;1.67;;;1.20;;
52542;SDS011;38449;52.696;6.186;2023-07-20T15:08:12;2.05;;;1.20;;
52542;SDS011;38449;52.696;6.186;2023-07-20T15:10:38;1.48;;;1.15;;
52542;SDS011;38449;52.696;6.186;2023-07-20T15:13:05;2.78;;;1.30;;